sensor_id;sensor_type;location;lat;lon;timestamp;pressure;altitude;pressure_sealevel;temperature;humidity
71795;BME280;59641;45.188;5.712;2023-08-12T00:01:16;99600.94;;;28.53;41.50
71795;BME280;59641;45.188;5.712;2023-08-12T00:03:42;99595.72;;;28.51;41.71
71795;BME280;59641;45.188;5.712;2023-08-12T00:06:07;99595.72;;;28.51;41.60
71795;BME280;59641;45.188;5.712;2023-08-12T00:08:33;99605.97;;;28.51;41.78
71795;BME280;59641;45.188;5.712;2023-08-12T00:10:58;99600.78;;;28.49;41.73
71795;BME280;59641;45.188;5.712;2023-08-12T00:13:23;99602.72;;;28.49;41.41
71795;BME280;59641;45.188;5.712;2023-08-12T00:15:49;99598.69;;;28.46;41.51
71795;BME280;59641;45.188;5.712;2023-08-12T00:18:15;99592.97;;;28.42;42.07
71795;BME280;59641;45.188;5.712;2023-08-12T00:20:41;99609.41;;;28.39;42.21
71795;BME280;59641;45.188;5.712;2023-08-12T00:23:08;99608.44;;;28.35;42.21
71795;BME280;59641;45.188;5.712;2023-08-12T00:25:33;99600.50;;;28.33;42.10
71795;BME280;59641;45.188;5.712;2023-08-12T00:27:59;99600.84;;;28.32;42.10
71795;BME280;59641;45.188;5.712;2023-08-12T00:30:24;99599.88;;;28.28;41.98
71795;BME280;59641;45.188;5.712;2023-08-12T00:32:50;99605.72;;;28.26;42.14
71795;BME280;59641;45.188;5.712;2023-08-12T00:35:15;99600.56;;;28.24;41.76
71795;BME280;59641;45.188;5.712;2023-08-12T00:37:41;99600.56;;;28.24;41.87
71795;BME280;59641;45.188;5.712;2023-08-12T00:40:06;99596.16;;;28.23;42.20
71795;BME280;59641;45.188;5.712;2023-08-12T00:42:32;99600.75;;;28.19;42.18
71795;BME280;59641;45.188;5.712;2023-08-12T00:44:58;99609.81;;;28.20;42.28
71795;BME280;59641;45.188;5.712;2023-08-12T00:47:23;99601.38;;;28.16;42.01
71795;BME280;59641;45.188;5.712;2023-08-12T00:49:49;99608.72;;;28.12;42.68
71795;BME280;59641;45.188;5.712;2023-08-12T00:52:16;99605.50;;;28.10;42.16
71795;BME280;59641;45.188;5.712;2023-08-12T00:54:42;99609.72;;;28.08;42.60
71795;BME280;59641;45.188;5.712;2023-08-12T00:57:08;99605.69;;;28.05;42.32
71795;BME280;59641;45.188;5.712;2023-08-12T00:59:35;99607.16;;;28.02;42.39
71795;BME280;59641;45.188;5.712;2023-08-12T01:02:02;99606.31;;;28.02;42.38
71795;BME280;59641;45.188;5.712;2023-08-12T01:04:27;99603.91;;;28.00;42.05
71795;BME280;59641;45.188;5.712;2023-08-12T01:06:53;99610.53;;;27.99;42.18
71795;BME280;59641;45.188;5.712;2023-08-12T01:09:18;99607.78;;;27.99;42.09
71795;BME280;59641;45.188;5.712;2023-08-12T01:14:46;99603.09;;;28.00;42.15
71795;BME280;59641;45.188;5.712;2023-08-12T01:17:14;99603.75;;;27.97;42.66
71795;BME280;59641;45.188;5.712;2023-08-12T01:19:42;99599.88;;;27.98;42.28
71795;BME280;59641;45.188;5.712;2023-08-12T01:22:12;99597.44;;;27.96;42.29
71795;BME280;59641;45.188;5.712;2023-08-12T01:24:42;99598.91;;;27.94;42.44
71795;BME280;59641;45.188;5.712;2023-08-12T01:27:10;99594.84;;;27.91;42.92
71795;BME280;59641;45.188;5.712;2023-08-12T01:29:44;99596.13;;;27.94;42.46
71795;BME280;59641;45.188;5.712;2023-08-12T01:32:44;99590.50;;;27.90;42.68
71795;BME280;59641;45.188;5.712;2023-08-12T01:35:20;99598.59;;;27.87;42.58
71795;BME280;59641;45.188;5.712;2023-08-12T01:37:48;99601.22;;;27.83;42.70
71795;BME280;59641;45.188;5.712;2023-08-12T01:40:16;99594.69;;;27.79;42.94
71795;BME280;59641;45.188;5.712;2023-08-12T01:42:42;99592.94;;;27.74;42.68
71795;BME280;59641;45.188;5.712;2023-08-12T01:45:08;99603.78;;;27.71;42.64
71795;BME280;59641;45.188;5.712;2023-08-12T01:47:33;99604.47;;;27.68;42.95
71795;BME280;59641;45.188;5.712;2023-08-12T01:49:59;99594.91;;;27.65;43.03
71795;BME280;59641;45.188;5.712;2023-08-12T01:52:25;99603.03;;;27.61;43.12
71795;BME280;59641;45.188;5.712;2023-08-12T01:54:51;99605.63;;;27.58;43.21
71795;BME280;59641;45.188;5.712;2023-08-12T01:57:16;99604.31;;;27.55;43.20
71795;BME280;59641;45.188;5.712;2023-08-12T01:59:42;99601.44;;;27.52;42.77
71795;BME280;59641;45.188;5.712;2023-08-12T02:02:11;99599.97;;;27.46;43.22
71795;BME280;59641;45.188;5.712;2023-08-12T02:04:36;99598.19;;;27.41;43.22
71795;BME280;59641;45.188;5.712;2023-08-12T02:07:03;99607.44;;;27.36;43.31
71795;BME280;59641;45.188;5.712;2023-08-12T02:09:28;99593.50;;;27.33;43.47
71795;BME280;59641;45.188;5.712;2023-08-12T02:11:53;99603.25;;;27.30;43.56
71795;BME280;59641;45.188;5.712;2023-08-12T02:14:19;99597.56;;;27.27;43.29
71795;BME280;59641;45.188;5.712;2023-08-12T02:16:44;99601.47;;;27.26;43.65
71795;BME280;59641;45.188;5.712;2023-08-12T02:19:09;99603.25;;;27.22;43.93
71795;BME280;59641;45.188;5.712;2023-08-12T02:21:35;99603.25;;;27.22;43.95
71795;BME280;59641;45.188;5.712;2023-08-12T02:24:00;99598.88;;;27.21;43.47
71795;BME280;59641;45.188;5.712;2023-08-12T02:26:26;99593.69;;;27.19;43.96
71795;BME280;59641;45.188;5.712;2023-08-12T02:28:51;99590.09;;;27.18;43.87
71795;BME280;59641;45.188;5.712;2023-08-12T02:31:17;99597.88;;;27.16;44.00
71795;BME280;59641;45.188;5.712;2023-08-12T02:33:43;99595.91;;;27.17;44.15
71795;BME280;59641;45.188;5.712;2023-08-12T02:36:08;99597.06;;;27.16;44.12
71795;BME280;59641;45.188;5.712;2023-08-12T02:38:33;99594.63;;;27.14;44.19
71795;BME280;59641;45.188;5.712;2023-08-12T02:40:59;99603.19;;;27.13;44.18
71795;BME280;59641;45.188;5.712;2023-08-12T02:43:24;99600.44;;;27.13;44.24
71795;BME280;59641;45.188;5.712;2023-08-12T02:45:49;99596.41;;;27.10;44.10
71795;BME280;59641;45.188;5.712;2023-08-12T02:48:15;99602.75;;;27.11;44.29
71795;BME280;59641;45.188;5.712;2023-08-12T02:50:40;99599.63;;;27.12;44.38
71795;BME280;59641;45.188;5.712;2023-08-12T02:53:06;99594.94;;;27.13;44.35
71795;BME280;59641;45.188;5.712;2023-08-12T02:55:31;99597.06;;;27.16;44.44
71795;BME280;59641;45.188;5.712;2023-08-12T02:58:00;99590.41;;;27.17;44.08
71795;BME280;59641;45.188;5.712;2023-08-12T03:00:26;99590.09;;;27.18;44.23
71795;BME280;59641;45.188;5.712;2023-08-12T03:02:53;99595.59;;;27.18;44.00
71795;BME280;59641;45.188;5.712;2023-08-12T03:05:18;99596.44;;;27.19;44.24
71795;BME280;59641;45.188;5.712;2023-08-12T03:07:43;99593.97;;;27.17;44.30
71795;BME280;59641;45.188;5.712;2023-08-12T03:10:09;99595.91;;;27.17;44.09
71795;BME280;59641;45.188;5.712;2023-08-12T03:12:35;99595.13;;;27.16;43.98
71795;BME280;59641;45.188;5.712;2023-08-12T03:15:01;99595.91;;;27.17;44.21
71795;BME280;59641;45.188;5.712;2023-08-12T03:17:27;99593.47;;;27.15;44.37
71795;BME280;59641;45.188;5.712;2023-08-12T03:19:52;99594.63;;;27.14;44.13
71795;BME280;59641;45.188;5.712;2023-08-12T03:22:19;99600.44;;;27.13;44.15
71795;BME280;59641;45.188;5.712;2023-08-12T03:24:45;99593.34;;;27.12;44.11
71795;BME280;59641;45.188;5.712;2023-08-12T03:27:10;99594.47;;;27.11;44.22
71795;BME280;59641;45.188;5.712;2023-08-12T03:29:35;99594.78;;;27.09;44.44
71795;BME280;59641;45.188;5.712;2023-08-12T03:32:01;99586.84;;;27.08;44.57
71795;BME280;59641;45.188;5.712;2023-08-12T03:34:28;99588.31;;;27.05;44.44
71795;BME280;59641;45.188;5.712;2023-08-12T03:36:54;99588.97;;;27.02;44.28
71795;BME280;59641;45.188;5.712;2023-08-12T03:39:20;99590.72;;;26.98;44.68
71795;BME280;59641;45.188;5.712;2023-08-12T03:41:45;99593.84;;;26.96;44.99
71795;BME280;59641;45.188;5.712;2023-08-12T03:44:11;99592.19;;;26.95;45.11
71795;BME280;59641;45.188;5.712;2023-08-12T03:46:36;99598.50;;;26.96;45.04
71795;BME280;59641;45.188;5.712;2023-08-12T03:49:01;99587.03;;;26.94;45.05
71795;BME280;59641;45.188;5.712;2023-08-12T03:51:27;99589.28;;;26.92;45.27
71795;BME280;59641;45.188;5.712;2023-08-12T03:53:52;99592.84;;;26.92;45.10
71795;BME280;59641;45.188;5.712;2023-08-12T03:56:18;99589.28;;;26.92;45.08
71795;BME280;59641;45.188;5.712;2023-08-12T03:58:43;99584.91;;;26.91;45.13
71795;BME280;59641;45.188;5.712;2023-08-12T04:01:08;99587.66;;;26.91;45.12
71795;BME280;59641;45.188;5.712;2023-08-12T04:03:34;99590.09;;;26.92;44.96
71795;BME280;59641;45.188;5.712;2023-08-12T04:05:59;99587.66;;;26.91;45.06
71795;BME280;59641;45.188;5.712;2023-08-12T04:08:25;99587.66;;;26.91;45.24
71795;BME280;59641;45.188;5.712;2023-08-12T04:10:51;99588.81;;;26.90;45.03
71795;BME280;59641;45.188;5.712;2023-08-12T04:13:16;99585.25;;;26.89;45.12
71795;BME280;59641;45.188;5.712;2023-08-12T04:15:42;99584.75;;;26.87;45.20
71795;BME280;59641;45.188;5.712;2023-08-12T04:18:07;99590.75;;;26.89;45.18
71795;BME280;59641;45.188;5.712;2023-08-12T04:20:33;99587.66;;;26.91;45.50
71795;BME280;59641;45.188;5.712;2023-08-12T04:22:58;99588.47;;;26.91;45.15
71795;BME280;59641;45.188;5.712;2023-08-12T04:25:24;99596.72;;;26.91;45.15
71795;BME280;59641;45.188;5.712;2023-08-12T04:27:49;99590.75;;;26.89;45.20
71795;BME280;59641;45.188;5.712;2023-08-12T04:30:18;99583.13;;;26.86;45.34
71795;BME280;59641;45.188;5.712;2023-08-12T04:32:43;99588.13;;;26.84;45.18
71795;BME280;59641;45.188;5.712;2023-08-12T04:35:09;99586.38;;;26.80;45.45
71795;BME280;59641;45.188;5.712;2023-08-12T04:37:35;99581.00;;;26.74;45.41
71795;BME280;59641;45.188;5.712;2023-08-12T04:40:01;99581.34;;;26.73;45.36
71795;BME280;59641;45.188;5.712;2023-08-12T04:42:29;99580.84;;;26.71;45.30
71795;BME280;59641;45.188;5.712;2023-08-12T04:44:54;99580.84;;;26.71;45.55
71795;BME280;59641;45.188;5.712;2023-08-12T04:47:20;99580.34;;;26.69;45.43
71795;BME280;59641;45.188;5.712;2023-08-12T04:49:45;99579.56;;;26.68;45.24
71795;BME280;59641;45.188;5.712;2023-08-12T04:52:10;99582.00;;;26.70;45.21
71795;BME280;59641;45.188;5.712;2023-08-12T04:54:36;99576.16;;;26.71;45.40
71795;BME280;59641;45.188;5.712;2023-08-12T04:57:01;99575.84;;;26.73;45.02
71795;BME280;59641;45.188;5.712;2023-08-12T04:59:26;99582.94;;;26.74;45.02
71795;BME280;59641;45.188;5.712;2023-08-12T05:01:52;99585.38;;;26.75;45.15
71795;BME280;59641;45.188;5.712;2023-08-12T05:04:17;99587.81;;;26.77;44.94
71795;BME280;59641;45.188;5.712;2023-08-12T05:06:43;99582.63;;;26.75;45.08
71795;BME280;59641;45.188;5.712;2023-08-12T05:09:08;99585.69;;;26.74;44.74
71795;BME280;59641;45.188;5.712;2023-08-12T05:11:34;99586.50;;;26.74;45.27
71795;BME280;59641;45.188;5.712;2023-08-12T05:13:59;99578.25;;;26.74;45.03
71795;BME280;59641;45.188;5.712;2023-08-12T05:16:25;99577.44;;;26.74;44.99
71795;BME280;59641;45.188;5.712;2023-08-12T05:18:50;99571.94;;;26.74;45.22
71795;BME280;59641;45.188;5.712;2023-08-12T05:21:16;99571.94;;;26.74;45.28
71795;BME280;59641;45.188;5.712;2023-08-12T05:23:41;99580.69;;;26.76;45.39
71795;BME280;59641;45.188;5.712;2023-08-12T05:26:07;99580.69;;;26.76;45.39
71795;BME280;59641;45.188;5.712;2023-08-12T05:28:32;99579.88;;;26.75;45.16
71795;BME280;59641;45.188;5.712;2023-08-12T05:30:57;99569.19;;;26.74;45.20
71795;BME280;59641;45.188;5.712;2023-08-12T05:33:23;99588.94;;;26.76;45.29
71795;BME280;59641;45.188;5.712;2023-08-12T05:35:49;99582.63;;;26.75;45.29
71795;BME280;59641;45.188;5.712;2023-08-12T05:38:15;99586.19;;;26.76;45.40
71795;BME280;59641;45.188;5.712;2023-08-12T05:40:41;99594.94;;;26.78;45.50
71795;BME280;59641;45.188;5.712;2023-08-12T05:43:06;99596.56;;;26.79;45.33
71795;BME280;59641;45.188;5.712;2023-08-12T05:45:31;99591.38;;;26.77;45.24
71795;BME280;59641;45.188;5.712;2023-08-12T05:47:57;99591.88;;;26.80;44.82
71795;BME280;59641;45.188;5.712;2023-08-12T05:50:22;99588.13;;;26.75;45.09
71795;BME280;59641;45.188;5.712;2023-08-12T05:52:48;99598.34;;;26.75;45.41
71795;BME280;59641;45.188;5.712;2023-08-12T05:55:13;99598.00;;;26.76;45.34
71795;BME280;59641;45.188;5.712;2023-08-12T05:57:38;99592.50;;;26.76;45.12
71795;BME280;59641;45.188;5.712;2023-08-12T06:00:04;99600.75;;;26.76;45.25
71795;BME280;59641;45.188;5.712;2023-08-12T06:02:30;99599.31;;;26.79;45.43
71795;BME280;59641;45.188;5.712;2023-08-12T06:04:55;99601.44;;;26.82;45.35
71795;BME280;59641;45.188;5.712;2023-08-12T06:07:20;99605.97;;;26.87;45.13
71795;BME280;59641;45.188;5.712;2023-08-12T06:09:46;99605.31;;;26.90;45.34
71795;BME280;59641;45.188;5.712;2023-08-12T06:12:11;99603.88;;;26.92;45.31
71795;BME280;59641;45.188;5.712;2023-08-12T06:14:37;99606.13;;;26.90;45.69
71795;BME280;59641;45.188;5.712;2023-08-12T06:17:03;99600.13;;;26.88;45.99
71795;BME280;59641;45.188;5.712;2023-08-12T06:19:29;99600.78;;;26.85;46.08
71795;BME280;59641;45.188;5.712;2023-08-12T06:21:54;99611.00;;;26.85;46.27
71795;BME280;59641;45.188;5.712;2023-08-12T06:24:19;99613.09;;;26.88;46.04
71795;BME280;59641;45.188;5.712;2023-08-12T06:26:45;99609.19;;;26.89;46.12
71795;BME280;59641;45.188;5.712;2023-08-12T06:29:10;99612.78;;;26.89;46.08
71795;BME280;59641;45.188;5.712;2023-08-12T06:31:35;99612.78;;;26.89;46.13
71795;BME280;59641;45.188;5.712;2023-08-12T06:34:01;99611.63;;;26.90;46.16
71795;BME280;59641;45.188;5.712;2023-08-12T06:36:26;99618.75;;;26.91;46.25
71795;BME280;59641;45.188;5.712;2023-08-12T06:38:52;99624.75;;;26.93;46.53
71795;BME280;59641;45.188;5.712;2023-08-12T06:41:17;99616.47;;;26.93;46.46
71795;BME280;59641;45.188;5.712;2023-08-12T06:43:42;99620.38;;;26.92;46.64
71795;BME280;59641;45.188;5.712;2023-08-12T06:46:08;99616.47;;;26.93;46.66
71795;BME280;59641;45.188;5.712;2023-08-12T06:48:33;99619.72;;;26.95;46.69
71795;BME280;59641;45.188;5.712;2023-08-12T06:50:58;99619.41;;;26.97;46.31
71795;BME280;59641;45.188;5.712;2023-08-12T06:53:25;99619.41;;;26.97;46.26
71795;BME280;59641;45.188;5.712;2023-08-12T06:55:51;99617.94;;;26.91;46.06
71795;BME280;59641;45.188;5.712;2023-08-12T06:58:16;99618.75;;;26.91;46.46
71795;BME280;59641;45.188;5.712;2023-08-12T07:00:42;99618.75;;;26.91;46.53
71795;BME280;59641;45.188;5.712;2023-08-12T07:03:07;99625.56;;;26.94;46.57
71795;BME280;59641;45.188;5.712;2023-08-12T07:05:33;99622.00;;;26.93;46.63
71795;BME280;59641;45.188;5.712;2023-08-12T07:08:01;99610.66;;;26.95;46.46
71795;BME280;59641;45.188;5.712;2023-08-12T07:10:26;99620.22;;;26.97;46.76
71795;BME280;59641;45.188;5.712;2023-08-12T07:12:52;99613.25;;;27.00;46.76
71795;BME280;59641;45.188;5.712;2023-08-12T07:15:17;99612.09;;;27.01;46.31
71795;BME280;59641;45.188;5.712;2023-08-12T07:17:42;99610.19;;;27.02;46.15
71795;BME280;59641;45.188;5.712;2023-08-12T07:20:08;99616.50;;;27.02;45.97
71795;BME280;59641;45.188;5.712;2023-08-12T07:22:33;99615.34;;;27.03;46.24
71795;BME280;59641;45.188;5.712;2023-08-12T07:24:59;99621.34;;;27.05;46.12
71795;BME280;59641;45.188;5.712;2023-08-12T07:27:26;99615.19;;;27.08;46.21
71795;BME280;59641;45.188;5.712;2023-08-12T07:29:51;99617.63;;;27.10;45.72
71795;BME280;59641;45.188;5.712;2023-08-12T07:32:17;99627.84;;;27.09;45.79
71795;BME280;59641;45.188;5.712;2023-08-12T07:34:42;99611.16;;;27.14;45.93
71795;BME280;59641;45.188;5.712;2023-08-12T07:37:07;99607.75;;;27.17;45.64
71795;BME280;59641;45.188;5.712;2023-08-12T07:39:33;99609.56;;;27.22;45.40
71795;BME280;59641;45.188;5.712;2023-08-12T07:41:58;99611.03;;;27.28;45.61
71795;BME280;59641;45.188;5.712;2023-08-12T07:44:24;99608.09;;;27.33;45.78
71795;BME280;59641;45.188;5.712;2023-08-12T07:46:49;99607.91;;;27.38;45.84
71795;BME280;59641;45.188;5.712;2023-08-12T07:49:16;99608.91;;;27.43;45.80
71795;BME280;59641;45.188;5.712;2023-08-12T07:51:41;99599.16;;;27.45;45.60
71795;BME280;59641;45.188;5.712;2023-08-12T07:54:07;99599.66;;;27.47;45.51
71795;BME280;59641;45.188;5.712;2023-08-12T07:56:32;99605.31;;;27.51;45.53
71795;BME280;59641;45.188;5.712;2023-08-12T07:58:57;99605.47;;;27.54;45.48
71795;BME280;59641;45.188;5.712;2023-08-12T08:01:23;99599.31;;;27.57;45.60
71795;BME280;59641;45.188;5.712;2023-08-12T08:03:48;99602.53;;;27.59;45.00
71795;BME280;59641;45.188;5.712;2023-08-12T08:06:13;99604.63;;;27.62;45.00
71795;BME280;59641;45.188;5.712;2023-08-12T08:08:39;99598.47;;;27.66;45.18
71795;BME280;59641;45.188;5.712;2023-08-12T08:11:04;99602.84;;;27.67;45.41
71795;BME280;59641;45.188;5.712;2023-08-12T08:13:31;99609.66;;;27.69;45.10
71795;BME280;59641;45.188;5.712;2023-08-12T08:15:56;99610.47;;;27.70;45.04
71795;BME280;59641;45.188;5.712;2023-08-12T08:18:22;99614.81;;;27.71;44.97
71795;BME280;59641;45.188;5.712;2023-08-12T08:20:48;99615.00;;;27.74;44.81
71795;BME280;59641;45.188;5.712;2023-08-12T08:23:13;99617.44;;;27.76;44.75
71795;BME280;59641;45.188;5.712;2023-08-12T08:25:38;99618.38;;;27.80;45.10
71795;BME280;59641;45.188;5.712;2023-08-12T08:28:04;99618.56;;;27.83;45.02
71795;BME280;59641;45.188;5.712;2023-08-12T08:30:29;99598.75;;;27.81;45.10
71795;BME280;59641;45.188;5.712;2023-08-12T08:32:55;99604.28;;;27.90;45.06
71795;BME280;59641;45.188;5.712;2023-08-12T08:35:20;99614.63;;;27.93;44.93
71795;BME280;59641;45.188;5.712;2023-08-12T08:37:46;99600.19;;;27.96;45.25
71795;BME280;59641;45.188;5.712;2023-08-12T08:40:11;99601.47;;;27.99;45.12
71795;BME280;59641;45.188;5.712;2023-08-12T08:42:37;99611.03;;;28.01;45.11
71795;BME280;59641;45.188;5.712;2023-08-12T08:45:07;99613.59;;;28.07;44.80
71795;BME280;59641;45.188;5.712;2023-08-12T08:47:35;99604.34;;;28.11;44.58
71795;BME280;59641;45.188;5.712;2023-08-12T08:50:01;99610.00;;;28.15;44.78
71795;BME280;59641;45.188;5.712;2023-08-12T08:52:27;99600.75;;;28.19;44.53
71795;BME280;59641;45.188;5.712;2023-08-12T08:54:53;99600.88;;;28.23;44.32
71795;BME280;59641;45.188;5.712;2023-08-12T08:57:18;99591.13;;;28.25;44.32
71795;BME280;59641;45.188;5.712;2023-08-12T08:59:47;99592.88;;;28.30;44.56
71795;BME280;59641;45.188;5.712;2023-08-12T09:02:16;99596.25;;;28.36;44.25
71795;BME280;59641;45.188;5.712;2023-08-12T09:04:46;99596.41;;;28.39;44.43
71795;BME280;59641;45.188;5.712;2023-08-12T09:07:12;99595.75;;;28.42;44.01
71795;BME280;59641;45.188;5.712;2023-08-12T09:09:44;99597.03;;;28.45;44.04
71795;BME280;59641;45.188;5.712;2023-08-12T09:12:13;99592.81;;;28.48;43.45
71795;BME280;59641;45.188;5.712;2023-08-12T09:14:39;99592.16;;;28.51;43.05
71795;BME280;59641;45.188;5.712;2023-08-12T09:17:04;99583.53;;;28.52;43.18
71795;BME280;59641;45.188;5.712;2023-08-12T09:19:30;99591.63;;;28.57;42.99
71795;BME280;59641;45.188;5.712;2023-08-12T09:21:55;99589.00;;;28.61;42.51
71795;BME280;59641;45.188;5.712;2023-08-12T09:24:25;99591.25;;;28.67;42.46
71795;BME280;59641;45.188;5.712;2023-08-12T09:26:54;99577.22;;;28.73;42.10
71795;BME280;59641;45.188;5.712;2023-08-12T09:29:24;99581.75;;;28.77;42.41
71795;BME280;59641;45.188;5.712;2023-08-12T09:31:54;99577.97;;;28.82;42.20
71795;BME280;59641;45.188;5.712;2023-08-12T09:34:19;99578.56;;;28.87;42.51
71795;BME280;59641;45.188;5.712;2023-08-12T09:36:44;99580.34;;;28.92;41.94
71795;BME280;59641;45.188;5.712;2023-08-12T09:39:12;99570.69;;;28.98;42.05
71795;BME280;59641;45.188;5.712;2023-08-12T09:41:38;99570.13;;;29.05;42.23
71795;BME280;59641;45.188;5.712;2023-08-12T09:44:06;99558.09;;;29.09;41.72
71795;BME280;59641;45.188;5.712;2023-08-12T09:46:33;99562.63;;;29.14;41.82
71795;BME280;59641;45.188;5.712;2023-08-12T09:48:59;99560.13;;;29.21;41.48
71795;BME280;59641;45.188;5.712;2023-08-12T09:51:24;99549.19;;;29.25;41.35
71795;BME280;59641;45.188;5.712;2023-08-12T09:53:51;99548.97;;;29.30;40.82
71795;BME280;59641;45.188;5.712;2023-08-12T09:56:23;99555.56;;;29.38;41.10
71795;BME280;59641;45.188;5.712;2023-08-12T09:58:50;99553.28;;;29.40;40.33
71795;BME280;59641;45.188;5.712;2023-08-12T10:01:21;99552.69;;;29.46;40.37
71795;BME280;59641;45.188;5.712;2023-08-12T10:03:50;99547.41;;;29.53;40.27
71795;BME280;59641;45.188;5.712;2023-08-12T10:06:17;99548.34;;;29.58;40.00
71795;BME280;59641;45.188;5.712;2023-08-12T10:08:43;99535.09;;;29.63;40.45
71795;BME280;59641;45.188;5.712;2023-08-12T10:11:09;99528.22;;;29.69;40.21
71795;BME280;59641;45.188;5.712;2023-08-12T10:13:35;99526.88;;;29.76;40.09
71795;BME280;59641;45.188;5.712;2023-08-12T10:16:01;99525.47;;;29.82;40.32
71795;BME280;59641;45.188;5.712;2023-08-12T10:18:28;99520.53;;;29.87;40.18
71795;BME280;59641;45.188;5.712;2023-08-12T10:20:57;99514.41;;;29.94;40.36
71795;BME280;59641;45.188;5.712;2023-08-12T10:23:24;99513.03;;;30.00;41.10
71795;BME280;59641;45.188;5.712;2023-08-12T10:25:53;99504.97;;;30.07;41.10
71795;BME280;59641;45.188;5.712;2023-08-12T10:28:19;99507.50;;;30.12;40.91
71795;BME280;59641;45.188;5.712;2023-08-12T10:30:45;99503.31;;;30.19;41.08
71795;BME280;59641;45.188;5.712;2023-08-12T10:33:10;99492.50;;;30.26;40.81
71795;BME280;59641;45.188;5.712;2023-08-12T10:35:46;99489.63;;;30.34;40.36
71795;BME280;59641;45.188;5.712;2023-08-12T10:38:19;99483.94;;;30.43;40.70
71795;BME280;59641;45.188;5.712;2023-08-12T10:40:46;99483.78;;;30.52;40.30
71795;BME280;59641;45.188;5.712;2023-08-12T10:43:12;99479.72;;;30.62;40.72
71795;BME280;59641;45.188;5.712;2023-08-12T10:45:49;99479.69;;;30.74;40.22
71795;BME280;59641;45.188;5.712;2023-08-12T10:48:21;99473.69;;;30.84;39.95
71795;BME280;59641;45.188;5.712;2023-08-12T10:50:55;99473.97;;;30.95;39.50
71795;BME280;59641;45.188;5.712;2023-08-12T10:53:33;99461.94;;;31.03;39.64
71795;BME280;59641;45.188;5.712;2023-08-12T10:56:03;99459.44;;;31.14;39.57
71795;BME280;59641;45.188;5.712;2023-08-12T10:58:55;99454.19;;;31.25;39.36
71795;BME280;59641;45.188;5.712;2023-08-12T11:01:20;99451.22;;;31.33;39.10
71795;BME280;59641;45.188;5.712;2023-08-12T11:03:47;99447.50;;;31.41;39.33
71795;BME280;59641;45.188;5.712;2023-08-12T11:06:13;99442.50;;;31.47;39.07
71795;BME280;59641;45.188;5.712;2023-08-12T11:08:56;99442.41;;;31.59;38.44
71795;BME280;59641;45.188;5.712;2023-08-12T11:11:23;99439.06;;;31.70;38.14
71795;BME280;59641;45.188;5.712;2023-08-12T11:13:58;99437.72;;;31.79;38.04
71795;BME280;59641;45.188;5.712;2023-08-12T11:16:37;99437.06;;;31.86;37.21
71795;BME280;59641;45.188;5.712;2023-08-12T11:19:04;99426.13;;;31.93;37.80
71795;BME280;59641;45.188;5.712;2023-08-12T11:21:30;99429.91;;;32.01;37.21
71795;BME280;59641;45.188;5.712;2023-08-12T11:23:55;99426.59;;;32.11;37.63
71795;BME280;59641;45.188;5.712;2023-08-12T11:26:23;99413.66;;;32.19;37.24
71795;BME280;59641;45.188;5.712;2023-08-12T11:28:49;99410.28;;;32.29;37.37
71795;BME280;59641;45.188;5.712;2023-08-12T11:31:16;99410.09;;;32.38;36.96
71795;BME280;59641;45.188;5.712;2023-08-12T11:33:41;99409.06;;;32.46;36.29
71795;BME280;59641;45.188;5.712;2023-08-12T11:36:07;99395.78;;;32.55;35.70
71795;BME280;59641;45.188;5.712;2023-08-12T11:38:32;99409.81;;;32.62;36.04
71795;BME280;59641;45.188;5.712;2023-08-12T11:41:00;99405.63;;;32.72;35.34
71795;BME280;59641;45.188;5.712;2023-08-12T11:43:27;99399.81;;;32.81;36.08
71795;BME280;59641;45.188;5.712;2023-08-12T11:45:55;99399.94;;;32.88;35.04
71795;BME280;59641;45.188;5.712;2023-08-12T11:48:21;99393.41;;;33.00;34.87
71795;BME280;59641;45.188;5.712;2023-08-12T11:50:46;99396.78;;;33.09;35.60
71795;BME280;59641;45.188;5.712;2023-08-12T11:53:12;99393.69;;;33.14;35.06
71795;BME280;59641;45.188;5.712;2023-08-12T11:55:37;99386.22;;;33.18;34.10
71795;BME280;59641;45.188;5.712;2023-08-12T11:58:03;99378.75;;;33.22;34.41
71795;BME280;59641;45.188;5.712;2023-08-12T12:00:28;99375.59;;;33.24;34.36
71795;BME280;59641;45.188;5.712;2023-08-12T12:02:55;99379.25;;;33.28;34.92
71795;BME280;59641;45.188;5.712;2023-08-12T12:05:27;99379.34;;;33.35;35.04
71795;BME280;59641;45.188;5.712;2023-08-12T12:07:53;99373.03;;;33.38;34.36
71795;BME280;59641;45.188;5.712;2023-08-12T12:10:20;99381.88;;;33.44;34.56
71795;BME280;59641;45.188;5.712;2023-08-12T12:12:47;99376.38;;;33.47;34.67
71795;BME280;59641;45.188;5.712;2023-08-12T12:15:14;99378.81;;;33.52;34.53
71795;BME280;59641;45.188;5.712;2023-08-12T12:17:42;99374.59;;;33.59;34.90
71795;BME280;59641;45.188;5.712;2023-08-12T12:20:08;99373.47;;;33.63;34.94
71795;BME280;59641;45.188;5.712;2023-08-12T12:22:36;99374.25;;;33.64;34.29
71795;BME280;59641;45.188;5.712;2023-08-12T12:25:07;99375.06;;;33.64;34.83
71795;BME280;59641;45.188;5.712;2023-08-12T12:27:33;99378.97;;;33.60;34.57
71795;BME280;59641;45.188;5.712;2023-08-12T12:30:00;99368.91;;;33.55;34.70
71795;BME280;59641;45.188;5.712;2023-08-12T12:32:26;99372.47;;;33.52;34.30
71795;BME280;59641;45.188;5.712;2023-08-12T12:34:51;99372.03;;;33.50;34.62
71795;BME280;59641;45.188;5.712;2023-08-12T12:37:18;99367.22;;;33.47;34.33
71795;BME280;59641;45.188;5.712;2023-08-12T12:39:44;99362.47;;;33.47;34.43
71795;BME280;59641;45.188;5.712;2023-08-12T12:42:10;99357.31;;;33.49;34.42
71795;BME280;59641;45.188;5.712;2023-08-12T12:44:36;99360.97;;;33.53;34.44
71795;BME280;59641;45.188;5.712;2023-08-12T12:47:02;99362.22;;;33.56;34.63
71795;BME280;59641;45.188;5.712;2023-08-12T12:49:28;99368.59;;;33.57;34.21
71795;BME280;59641;45.188;5.712;2023-08-12T12:51:53;99358.63;;;33.56;34.34
71795;BME280;59641;45.188;5.712;2023-08-12T12:54:19;99360.25;;;33.57;34.34
71795;BME280;59641;45.188;5.712;2023-08-12T12:56:44;99361.84;;;33.58;34.84
71795;BME280;59641;45.188;5.712;2023-08-12T12:59:10;99365.06;;;33.60;34.47